createdAt,value
2018-03-23T00:01:21.049Z,90.80
2018-03-23T00:03:47.624Z,91.10
2018-03-23T00:06:14.206Z,91.20
2018-03-23T00:08:40.775Z,91.20
2018-03-23T00:11:07.312Z,91.50
2018-03-23T00:13:33.886Z,91.70
2018-03-23T00:16:00.505Z,91.80
2018-03-23T00:18:27.038Z,91.90
2018-03-23T00:20:53.977Z,92.10
2018-03-23T00:23:20.967Z,92.10
2018-03-23T00:25:47.489Z,92.10
2018-03-23T00:28:14.421Z,92.50
2018-03-23T00:30:41.441Z,92.70
2018-03-23T00:33:07.969Z,92.70
2018-03-23T00:35:34.530Z,92.80
2018-03-23T00:38:01.131Z,92.80
2018-03-23T00:40:28.043Z,92.90
2018-03-23T00:42:54.617Z,92.90
2018-03-23T00:45:21.178Z,93.00
2018-03-23T00:47:47.713Z,93.10
2018-03-23T00:50:14.274Z,93.20
2018-03-23T00:52:40.876Z,93.20
2018-03-23T00:55:07.427Z,93.20
2018-03-23T00:57:33.977Z,93.30
2018-03-23T01:00:00.546Z,93.20
2018-03-23T01:02:27.083Z,93.20
2018-03-23T01:04:53.651Z,92.80
2018-03-23T01:07:20.218Z,92.90
2018-03-23T01:09:47.117Z,93.00
2018-03-23T01:12:13.690Z,92.90
2018-03-23T01:14:40.274Z,92.90
2018-03-23T01:17:06.821Z,93.30
2018-03-23T01:19:33.757Z,92.70
2018-03-23T01:22:00.342Z,92.70
2018-03-23T01:24:26.873Z,92.80
2018-03-23T01:26:53.447Z,93.00
2018-03-23T01:29:20.013Z,93.00
2018-03-23T01:31:46.594Z,92.90
2018-03-23T01:34:13.163Z,92.90
2018-03-23T01:36:40.107Z,93.20
2018-03-23T01:39:06.666Z,93.20
2018-03-23T01:41:33.269Z,93.30
2018-03-23T01:43:59.835Z,93.30
2018-03-23T01:46:26.358Z,93.30
2018-03-23T01:48:52.914Z,93.30
2018-03-23T01:51:19.490Z,93.30
2018-03-23T01:53:46.033Z,93.20
2018-03-23T01:56:12.593Z,93.20
2018-03-23T01:58:39.166Z,93.30
2018-03-23T02:01:05.738Z,93.20
2018-03-23T02:03:32.302Z,93.30
2018-03-23T02:05:58.873Z,93.20
2018-03-23T02:08:25.421Z,93.10
2018-03-23T02:10:51.985Z,93.00
2018-03-23T02:13:18.925Z,92.90
2018-03-23T02:15:45.469Z,92.90
2018-03-23T02:18:12.396Z,92.90
2018-03-23T02:20:39.019Z,92.90
2018-03-23T02:23:05.548Z,93.00
2018-03-23T02:25:32.109Z,92.80
2018-03-23T02:27:58.677Z,93.00
2018-03-23T02:30:25.258Z,92.80
2018-03-23T02:32:51.822Z,93.00
2018-03-23T02:35:18.755Z,93.20
2018-03-23T02:37:45.315Z,93.20
2018-03-23T02:40:12.246Z,93.00
2018-03-23T02:42:38.850Z,93.00
2018-03-23T02:45:05.417Z,93.00
2018-03-23T02:47:31.981Z,93.20
2018-03-23T02:49:58.583Z,92.90
2018-03-23T02:52:25.530Z,92.50
2018-03-23T02:54:52.461Z,92.60
2018-03-23T02:57:19.022Z,92.60
2018-03-23T02:59:45.921Z,92.60
2018-03-23T03:02:12.472Z,92.60
2018-03-23T03:04:39.053Z,92.60
2018-03-23T03:07:05.582Z,92.50
2018-03-23T03:09:32.145Z,92.70
2018-03-23T03:11:58.697Z,92.80
2018-03-23T03:14:25.222Z,92.90
2018-03-23T03:16:51.789Z,92.80
2018-03-23T03:19:18.345Z,93.00
2018-03-23T03:21:44.913Z,92.70
2018-03-23T03:24:11.848Z,93.00
2018-03-23T03:26:38.435Z,93.00
2018-03-23T03:29:04.965Z,93.00
2018-03-23T03:31:31.910Z,92.70
2018-03-23T03:33:58.473Z,92.70
2018-03-23T03:36:25.360Z,92.50
2018-03-23T03:38:51.945Z,92.50
2018-03-23T03:41:18.519Z,92.70
2018-03-23T03:43:45.421Z,92.70
2018-03-23T03:46:12.061Z,92.70
2018-03-23T03:48:38.621Z,92.50
2018-03-23T03:51:05.177Z,92.50
2018-03-23T03:53:31.729Z,92.80
2018-03-23T03:55:58.364Z,92.80
2018-03-23T03:58:24.898Z,93.20
2018-03-23T04:00:51.481Z,93.30
2018-03-23T04:03:18.056Z,93.20
2018-03-23T04:05:44.957Z,93.20
2018-03-23T04:08:11.634Z,93.20
2018-03-23T04:10:38.188Z,92.90
2018-03-23T04:13:04.718Z,93.20
2018-03-23T04:15:31.281Z,93.30
2018-03-23T04:17:57.855Z,93.30
2018-03-23T04:20:24.381Z,93.60
2018-03-23T04:22:50.941Z,93.90
2018-03-23T04:25:17.502Z,93.90
2018-03-23T04:27:44.393Z,94.00
2018-03-23T04:30:10.957Z,94.00
2018-03-23T04:32:37.529Z,93.80
2018-03-23T04:35:04.082Z,93.80
2018-03-23T04:37:30.709Z,93.80
2018-03-23T04:39:57.277Z,93.80
2018-03-23T04:42:24.174Z,93.90
2018-03-23T04:44:50.737Z,93.90
2018-03-23T04:47:17.298Z,94.20
2018-03-23T04:49:43.874Z,94.40
2018-03-23T04:52:10.446Z,94.40
2018-03-23T04:54:37.029Z,94.80
2018-03-23T04:57:03.558Z,94.70
2018-03-23T04:59:30.122Z,94.90
2018-03-23T05:01:56.725Z,95.00
2018-03-23T05:04:23.665Z,95.40
2018-03-23T05:06:50.593Z,95.50
2018-03-23T05:09:17.301Z,95.50
2018-03-23T05:11:43.832Z,95.50
2018-03-23T05:14:10.785Z,95.80
2018-03-23T05:16:37.714Z,95.80
2018-03-23T05:19:04.246Z,95.80
2018-03-23T05:21:30.815Z,95.80
2018-03-23T05:23:57.371Z,95.90
2018-03-23T05:26:23.907Z,95.70
2018-03-23T05:28:50.470Z,95.50
2018-03-23T05:31:17.423Z,95.30
2018-03-23T05:33:43.940Z,95.30
2018-03-23T05:36:10.505Z,95.20
2018-03-23T05:38:37.097Z,95.30
2018-03-23T05:41:03.640Z,95.20
2018-03-23T05:43:30.213Z,95.30
2018-03-23T05:45:56.857Z,95.00
2018-03-23T05:48:23.377Z,95.00
2018-03-23T05:50:49.980Z,94.70
2018-03-23T05:53:16.554Z,94.50
2018-03-23T05:55:43.997Z,94.60
2018-03-23T05:58:10.552Z,94.40
2018-03-23T06:00:37.146Z,94.40
2018-03-23T06:03:03.677Z,94.40
2018-03-23T06:05:30.606Z,94.70
2018-03-23T06:07:57.222Z,94.70
2018-03-23T06:10:23.753Z,94.70
2018-03-23T06:12:50.374Z,95.00
2018-03-23T06:15:17.306Z,94.70
2018-03-23T06:17:43.843Z,94.70
2018-03-23T06:20:10.446Z,94.80
2018-03-23T06:22:37.058Z,94.50
2018-03-23T06:25:03.601Z,94.70
2018-03-23T06:27:30.166Z,94.50
2018-03-23T06:29:56.721Z,94.40
2018-03-23T06:32:23.617Z,94.40
2018-03-23T06:34:50.178Z,94.40
2018-03-23T06:37:16.739Z,94.40
2018-03-23T06:39:43.329Z,94.40
2018-03-23T06:42:09.900Z,93.70
2018-03-23T06:44:36.467Z,93.50
2018-03-23T06:47:03.005Z,93.70
2018-03-23T06:49:29.570Z,93.50
2018-03-23T06:51:56.545Z,93.30
2018-03-23T06:54:23.086Z,93.30
2018-03-23T06:56:49.650Z,93.40
2018-03-23T06:59:16.210Z,93.00
2018-03-23T07:01:43.118Z,93.00
2018-03-23T07:04:09.676Z,93.00
2018-03-23T07:06:36.498Z,92.80
2018-03-23T07:09:03.175Z,93.00
2018-03-23T07:11:30.178Z,92.40
2018-03-23T07:13:56.737Z,92.40
2018-03-23T07:16:23.332Z,92.30
2018-03-23T07:18:49.874Z,92.20
2018-03-23T07:21:16.453Z,92.10
2018-03-23T07:23:42.994Z,91.90
2018-03-23T07:26:09.937Z,91.80
2018-03-23T07:28:36.525Z,91.80
2018-03-23T07:31:03.058Z,91.70
2018-03-23T07:33:29.985Z,91.30
2018-03-23T07:35:56.549Z,91.30
2018-03-23T07:38:23.155Z,91.30
2018-03-23T07:40:49.737Z,91.40
2018-03-23T07:43:16.386Z,91.60
2018-03-23T07:45:42.945Z,91.50
2018-03-23T07:48:09.519Z,91.40
2018-03-23T07:50:36.093Z,91.50
2018-03-23T07:53:02.627Z,91.50
2018-03-23T07:55:29.201Z,91.70
2018-03-23T07:57:55.755Z,91.50
2018-03-23T08:00:22.313Z,91.50
2018-03-23T08:02:48.877Z,91.50
2018-03-23T08:05:15.817Z,92.00
2018-03-23T08:07:42.354Z,92.00
2018-03-23T08:10:08.925Z,92.20
2018-03-23T08:12:35.859Z,92.20
2018-03-23T08:15:02.441Z,92.30
2018-03-23T08:17:29.017Z,92.70
2018-03-23T08:19:55.569Z,93.00
2018-03-23T08:22:22.149Z,92.90
2018-03-23T08:24:48.728Z,92.90
2018-03-23T08:27:15.295Z,92.90
2018-03-23T08:29:41.829Z,92.70
2018-03-23T08:32:08.767Z,92.50
2018-03-23T08:34:35.349Z,92.50
2018-03-23T08:37:01.914Z,92.20
2018-03-23T08:39:28.526Z,92.50
2018-03-23T08:41:55.555Z,92.00
2018-03-23T08:44:22.094Z,92.00
2018-03-23T08:46:48.673Z,91.50
2018-03-23T08:49:15.662Z,91.70
2018-03-23T08:51:42.193Z,91.70
2018-03-23T08:54:08.775Z,91.10
2018-03-23T08:56:35.360Z,90.90
2018-03-23T08:59:01.918Z,91.10
2018-03-23T09:01:28.854Z,91.20
2018-03-23T09:03:55.439Z,91.20
2018-03-23T09:06:21.990Z,91.20
2018-03-23T09:08:48.557Z,91.20
2018-03-23T09:11:15.160Z,91.10
2018-03-23T09:13:41.693Z,90.90
2018-03-23T09:16:08.393Z,90.80
2018-03-23T09:18:34.961Z,90.40
2018-03-23T09:21:01.524Z,90.60
2018-03-23T09:23:28.093Z,90.00
2018-03-23T09:25:54.657Z,90.60
2018-03-23T09:28:21.201Z,90.80
2018-03-23T09:30:48.144Z,90.20
2018-03-23T09:33:14.708Z,90.20
2018-03-23T09:35:41.662Z,89.00
2018-03-23T09:38:08.605Z,89.30
2018-03-23T09:40:35.200Z,89.30
2018-03-23T09:43:01.777Z,89.60
2018-03-23T09:45:28.372Z,89.80
2018-03-23T09:47:55.341Z,89.10
2018-03-23T09:50:21.863Z,89.10
2018-03-23T09:52:48.794Z,89.90
2018-03-23T09:55:15.374Z,89.90
2018-03-23T09:57:42.286Z,89.00
2018-03-23T10:00:08.873Z,89.00
2018-03-23T10:02:35.488Z,89.20
2018-03-23T10:05:02.051Z,89.20
2018-03-23T10:07:28.633Z,88.80
2018-03-23T10:09:55.191Z,89.70
2018-03-23T10:12:21.842Z,88.80
2018-03-23T10:14:48.409Z,88.60
2018-03-23T10:17:14.990Z,88.30
2018-03-23T10:19:41.538Z,87.90
2018-03-23T10:22:08.157Z,87.40
2018-03-23T10:24:34.726Z,86.60
2018-03-23T10:27:01.261Z,87.20
2018-03-23T10:29:27.868Z,87.30
2018-03-23T10:31:54.433Z,88.30
2018-03-23T10:34:20.967Z,87.70
2018-03-23T10:36:47.533Z,85.70
2018-03-23T10:39:14.141Z,87.10
2018-03-23T10:41:40.677Z,86.30
2018-03-23T10:44:07.614Z,86.30
2018-03-23T10:46:34.189Z,86.30
2018-03-23T10:49:01.094Z,85.60
2018-03-23T10:51:27.665Z,85.60
2018-03-23T10:53:54.617Z,86.70
2018-03-23T10:56:21.193Z,86.70
2018-03-23T10:58:47.757Z,87.10
2018-03-23T11:01:20.330Z,86.40
2018-03-23T11:03:47.098Z,86.30
2018-03-23T11:06:13.952Z,86.00
2018-03-23T11:08:40.523Z,86.00
2018-03-23T11:11:07.066Z,85.90
2018-03-23T11:13:33.625Z,85.70
2018-03-23T11:16:00.189Z,86.40
2018-03-23T11:18:26.750Z,86.00
2018-03-23T11:20:53.321Z,86.10
2018-03-23T11:23:19.906Z,86.10
2018-03-23T11:25:46.454Z,86.30
2018-03-23T11:28:13.033Z,86.60
2018-03-23T11:30:39.636Z,86.10
2018-03-23T11:33:06.177Z,86.30
2018-03-23T11:35:32.753Z,85.80
2018-03-23T11:37:59.322Z,85.50
2018-03-23T11:40:25.921Z,86.10
2018-03-23T11:42:52.490Z,86.20
2018-03-23T11:45:19.062Z,86.60
2018-03-23T11:47:45.581Z,86.40
2018-03-23T11:50:12.158Z,85.70
2018-03-23T11:52:38.734Z,84.70
2018-03-23T11:55:05.666Z,85.60
2018-03-23T11:57:32.235Z,85.60
2018-03-23T11:59:58.838Z,85.90
2018-03-23T12:02:25.381Z,86.20
2018-03-23T12:04:51.943Z,86.10
2018-03-23T12:07:18.545Z,86.60
2018-03-23T12:09:45.116Z,87.10
2018-03-23T12:12:11.679Z,87.30
2018-03-23T12:14:38.242Z,87.60
2018-03-23T12:17:04.858Z,87.70
2018-03-23T12:19:31.500Z,88.10
2018-03-23T12:21:58.069Z,88.10
2018-03-23T12:24:24.608Z,88.50
2018-03-23T12:26:51.173Z,88.60
2018-03-23T12:29:17.738Z,89.30
2018-03-23T12:31:44.273Z,89.20
2018-03-23T12:34:10.840Z,90.50
2018-03-23T12:36:37.782Z,92.00
2018-03-23T12:39:04.434Z,92.00
2018-03-23T12:41:31.030Z,93.10
2018-03-23T12:43:57.602Z,92.40
2018-03-23T12:46:24.134Z,92.20
2018-03-23T12:48:50.697Z,92.30
2018-03-23T12:51:17.319Z,91.60
2018-03-23T12:53:43.843Z,91.20
2018-03-23T12:56:10.775Z,91.10
2018-03-23T12:58:37.339Z,91.20
2018-03-23T13:01:04.254Z,90.50
2018-03-23T13:03:30.830Z,90.50
2018-03-23T13:05:57.409Z,89.90
2018-03-23T13:08:23.937Z,89.40
2018-03-23T13:10:50.885Z,88.70
2018-03-23T13:13:17.453Z,88.70
2018-03-23T13:15:44.409Z,90.10
2018-03-23T13:18:11.341Z,89.70
2018-03-23T13:20:37.902Z,89.70
2018-03-23T13:23:04.477Z,88.60
2018-03-23T13:25:31.069Z,87.20
2018-03-23T13:27:57.626Z,86.10
2018-03-23T13:30:24.171Z,85.60
2018-03-23T13:32:50.760Z,84.60
2018-03-23T13:35:17.338Z,84.10
2018-03-23T13:37:43.910Z,81.80
2018-03-23T13:40:10.517Z,83.00
2018-03-23T13:42:37.094Z,83.30
2018-03-23T13:45:03.728Z,81.10
2018-03-23T13:47:30.291Z,81.20
2018-03-23T13:49:56.869Z,82.00
2018-03-23T13:52:23.411Z,80.80
2018-03-23T13:54:49.994Z,79.90
2018-03-23T13:57:16.557Z,80.20
2018-03-23T13:59:49.083Z,79.50
2018-03-23T14:02:15.697Z,78.50
2018-03-23T14:04:42.263Z,78.60
2018-03-23T14:07:08.798Z,76.60
2018-03-23T14:09:35.578Z,78.10
2018-03-23T14:12:02.144Z,78.00
2018-03-23T14:14:35.730Z,78.90
2018-03-23T14:17:02.337Z,79.00
2018-03-23T14:19:28.911Z,79.10
2018-03-23T14:21:55.470Z,78.50
2018-03-23T14:24:22.042Z,79.00
2018-03-23T14:26:48.598Z,79.50
2018-03-23T14:29:15.541Z,79.10
2018-03-23T14:31:42.130Z,79.10
2018-03-23T14:34:08.730Z,80.00
2018-03-23T14:36:35.298Z,79.40
2018-03-23T14:39:01.858Z,80.00
2018-03-23T14:41:28.813Z,79.40
2018-03-23T14:43:55.802Z,81.00
2018-03-23T14:46:22.389Z,81.00
2018-03-23T14:48:48.938Z,79.30
2018-03-23T14:51:15.507Z,79.30
2018-03-23T14:53:42.440Z,77.20
2018-03-23T14:56:09.018Z,77.20
2018-03-23T14:58:42.002Z,77.80
2018-03-23T15:01:08.939Z,78.30
2018-03-23T15:03:35.470Z,78.30
2018-03-23T15:06:02.038Z,80.20
2018-03-23T15:08:28.630Z,77.90
2018-03-23T15:10:55.162Z,77.50
2018-03-23T15:13:22.106Z,78.00
2018-03-23T15:15:49.030Z,78.50
2018-03-23T15:18:15.566Z,78.50
2018-03-23T15:20:42.182Z,79.20
2018-03-23T15:23:08.746Z,80.40
2018-03-23T15:25:35.301Z,78.50
2018-03-23T15:28:01.866Z,79.20
2018-03-23T15:30:28.429Z,78.50
2018-03-23T15:32:55.084Z,78.00
2018-03-23T15:38:15.791Z,78.80
2018-03-23T15:40:42.398Z,79.50
2018-03-23T15:43:09.022Z,80.70
2018-03-23T15:45:35.565Z,81.60
2018-03-23T15:48:02.211Z,81.10
2018-03-23T15:50:28.745Z,80.40
2018-03-23T15:52:55.285Z,80.60
2018-03-23T15:55:21.861Z,79.50
2018-03-23T15:57:48.436Z,79.60
2018-03-23T16:00:14.982Z,80.40
2018-03-23T16:02:41.993Z,79.50
2018-03-23T16:05:08.600Z,79.50
2018-03-23T16:07:35.137Z,77.80
2018-03-23T16:10:02.074Z,81.00
2018-03-23T16:12:29.017Z,81.30
2018-03-23T16:14:55.567Z,81.40
2018-03-23T16:17:22.152Z,80.70
2018-03-23T16:19:48.726Z,80.90
2018-03-23T16:22:15.259Z,80.00
2018-03-23T16:24:41.821Z,79.90
2018-03-23T16:27:08.442Z,78.90
2018-03-23T16:29:34.974Z,79.50
2018-03-23T16:32:01.831Z,81.10
2018-03-23T16:34:28.437Z,80.70
2018-03-23T16:36:54.968Z,81.40
2018-03-23T16:39:21.546Z,80.70
2018-03-23T16:41:48.170Z,80.00
2018-03-23T16:44:14.698Z,80.80
2018-03-23T16:46:41.271Z,80.90
2018-03-23T16:49:07.834Z,81.00
2018-03-23T16:51:34.382Z,80.90
2018-03-23T16:54:00.966Z,81.10
2018-03-23T16:56:27.537Z,81.00
2018-03-23T16:58:54.067Z,81.30
2018-03-23T17:01:20.637Z,81.90
2018-03-23T17:03:47.219Z,81.60
2018-03-23T17:06:13.762Z,81.70
2018-03-23T17:08:40.362Z,82.20
2018-03-23T17:11:07.006Z,82.30
2018-03-23T17:13:33.550Z,82.60
2018-03-23T17:16:00.130Z,82.40
2018-03-23T17:18:26.702Z,82.40
2018-03-23T17:20:53.254Z,82.80
2018-03-23T17:23:19.923Z,83.00
2018-03-23T17:25:46.910Z,83.50
2018-03-23T17:28:13.450Z,83.50
2018-03-23T17:30:40.030Z,83.90
2018-03-23T17:33:06.634Z,83.90
2018-03-23T17:35:33.542Z,84.30
2018-03-23T17:38:00.174Z,84.30
2018-03-23T17:40:26.778Z,84.80
2018-03-23T17:42:53.679Z,85.00
2018-03-23T17:45:20.262Z,85.00
2018-03-23T17:47:46.850Z,85.20
2018-03-23T17:50:13.402Z,85.20
2018-03-23T17:52:39.986Z,85.00
2018-03-23T17:55:06.554Z,85.20
2018-03-23T17:57:33.142Z,85.20
2018-03-23T17:59:59.753Z,85.40
2018-03-23T18:02:26.331Z,85.10
2018-03-23T18:04:53.132Z,85.40
2018-03-23T18:07:20.118Z,86.00
2018-03-23T18:09:47.070Z,86.20
2018-03-23T18:12:13.719Z,86.20
2018-03-23T18:14:40.474Z,86.00
2018-03-23T18:17:07.482Z,86.30
2018-03-23T18:19:34.022Z,87.90
2018-03-23T18:22:00.642Z,88.50
2018-03-23T18:24:27.577Z,89.70
2018-03-23T18:26:54.115Z,89.70
2018-03-23T18:29:20.683Z,90.10
2018-03-23T18:31:47.634Z,90.30
2018-03-23T18:34:14.218Z,90.30
2018-03-23T18:36:40.802Z,90.20
2018-03-23T18:39:07.427Z,90.30
2018-03-23T18:41:34.101Z,90.00
2018-03-23T18:44:00.687Z,89.90
2018-03-23T18:46:27.632Z,89.20
2018-03-23T18:51:27.922Z,89.20
2018-03-23T18:53:54.529Z,89.20
2018-03-23T18:56:21.197Z,89.30
2018-03-23T18:58:48.166Z,88.60
2018-03-23T19:01:15.129Z,88.30
2018-03-23T19:03:42.050Z,88.20
2018-03-23T19:06:08.618Z,88.20
2018-03-23T19:08:35.551Z,88.50
2018-03-23T19:11:02.106Z,88.50
2018-03-23T19:13:28.789Z,88.50
2018-03-23T19:15:56.178Z,88.30
2018-03-23T19:18:22.731Z,88.30
2018-03-23T19:20:49.302Z,89.10
2018-03-23T19:23:15.869Z,89.40
2018-03-23T19:25:42.416Z,89.60
2018-03-23T19:28:08.990Z,90.10
2018-03-23T19:30:36.001Z,90.10
2018-03-23T19:33:02.538Z,90.10
2018-03-23T19:35:29.131Z,89.80
2018-03-23T19:37:56.126Z,89.40
2018-03-23T19:40:22.714Z,89.40
2018-03-23T19:42:49.450Z,89.00
2018-03-23T19:45:16.119Z,90.30
2018-03-23T19:47:43.066Z,91.10
2018-03-23T19:50:09.728Z,91.10
2018-03-23T19:52:36.313Z,91.60
2018-03-23T19:55:02.895Z,91.40
2018-03-23T19:57:29.470Z,91.30
2018-03-23T19:59:56.106Z,91.10
2018-03-23T20:02:22.654Z,90.20
2018-03-23T20:04:49.338Z,90.20
2018-03-23T20:07:16.296Z,89.50
2018-03-23T20:09:42.918Z,89.50
2018-03-23T20:12:09.510Z,89.40
2018-03-23T20:14:36.082Z,89.70
2018-03-23T20:17:02.678Z,90.00
2018-03-23T20:19:29.619Z,90.40
2018-03-23T20:21:56.201Z,90.40
2018-03-23T20:24:28.852Z,90.20
2018-03-23T20:26:55.510Z,90.10
2018-03-23T20:29:22.150Z,90.20
2018-03-23T20:31:54.720Z,89.80
2018-03-23T20:34:21.306Z,89.40
2018-03-23T20:36:48.255Z,89.50
2018-03-23T20:39:15.067Z,89.50
2018-03-23T20:41:41.836Z,89.40
2018-03-23T20:44:08.494Z,89.70
2018-03-23T20:46:35.071Z,89.40
2018-03-23T20:49:02.024Z,89.70
2018-03-23T20:51:28.974Z,90.10
2018-03-23T20:53:55.542Z,90.10
2018-03-23T20:56:22.125Z,90.40
2018-03-23T20:58:48.794Z,90.30
2018-03-23T21:01:15.823Z,89.80
2018-03-23T21:03:42.500Z,89.80
2018-03-23T21:06:09.048Z,90.00
2018-03-23T21:08:35.669Z,90.10
2018-03-23T21:11:02.247Z,90.20
2018-03-23T21:13:28.778Z,90.40
2018-03-23T21:15:55.356Z,90.10
2018-03-23T21:18:21.965Z,90.40
2018-03-23T21:20:48.562Z,90.10
2018-03-23T21:23:15.247Z,90.00
2018-03-23T21:25:41.876Z,90.40
2018-03-23T21:28:08.793Z,90.60
2018-03-23T21:30:35.372Z,90.60
2018-03-23T21:33:02.342Z,90.70
2018-03-23T21:35:28.943Z,90.70
2018-03-23T21:37:55.566Z,90.80
2018-03-23T21:40:22.243Z,91.20
2018-03-23T21:42:48.831Z,91.10
2018-03-23T21:45:15.774Z,90.90
2018-03-23T21:47:42.394Z,90.90
2018-03-23T21:50:08.958Z,90.90
2018-03-23T21:52:35.527Z,91.30
2018-03-23T21:55:02.590Z,91.30
2018-03-23T21:57:29.563Z,90.60
2018-03-23T21:59:56.122Z,90.60
2018-03-23T22:02:22.805Z,91.20
2018-03-23T22:04:49.452Z,91.20
2018-03-23T22:07:16.022Z,91.10
2018-03-23T22:09:42.627Z,90.90
2018-03-23T22:12:09.185Z,91.40
2018-03-23T22:14:35.758Z,91.20
2018-03-23T22:17:02.377Z,91.40
2018-03-23T22:19:28.919Z,91.60
2018-03-23T22:21:55.477Z,92.10
2018-03-23T22:24:22.085Z,92.00
2018-03-23T22:26:48.618Z,92.20
2018-03-23T22:29:15.565Z,92.50
2018-03-23T22:31:42.512Z,92.40
2018-03-23T22:34:09.045Z,92.50
2018-03-23T22:36:35.617Z,92.60
2018-03-23T22:39:02.677Z,92.20
2018-03-23T22:41:29.694Z,92.60
2018-03-23T22:43:56.258Z,92.60
2018-03-23T22:46:22.826Z,93.00
2018-03-23T22:48:49.421Z,92.70
2018-03-23T22:51:15.990Z,92.70
2018-03-23T22:53:42.613Z,93.10
2018-03-23T22:56:09.160Z,93.10
2018-03-23T22:58:35.718Z,93.40
2018-03-23T23:01:02.345Z,93.00
2018-03-23T23:03:28.879Z,93.10
2018-03-23T23:06:02.851Z,92.70
2018-03-23T23:08:29.435Z,92.70
2018-03-23T23:10:55.998Z,93.20
2018-03-23T23:13:22.938Z,92.80
2018-03-23T23:15:49.906Z,93.00
2018-03-23T23:18:16.819Z,93.20
2018-03-23T23:20:43.469Z,93.20
2018-03-23T23:23:10.119Z,93.10
2018-03-23T23:25:36.658Z,93.50
2018-03-23T23:28:03.242Z,93.20
2018-03-23T23:30:30.194Z,93.30
2018-03-23T23:32:56.923Z,93.30
2018-03-23T23:35:23.494Z,93.20
2018-03-23T23:37:50.054Z,92.70
2018-03-23T23:40:17.045Z,92.90
2018-03-23T23:42:43.640Z,92.90
2018-03-23T23:45:10.270Z,92.90
2018-03-23T23:47:36.818Z,92.80
2018-03-23T23:50:03.542Z,92.80
2018-03-23T23:52:30.220Z,93.00
2018-03-23T23:54:56.830Z,92.80
2018-03-23T23:57:23.396Z,92.80
2018-03-23T23:59:50.013Z,92.70
